SWA3851 KPHX-KONT
Flight info
| Callsign | SWA3851 |
|---|---|
| Flight time | 0h 53m |
| Altitude | 32000 |
| Route | KEENS3 HRRBR PHRED SCBBY2 |
| Aircraft | B737/M-SADE2E3GIJ4RWZ/LB1D1 |
Departure
| Time | 2026-05-05 23:23 |
|---|---|
| Airport | Phoenix Sky Harbor International Airport (KPHX) |
Arrival
| Time | 2026-05-06 00:16 |
|---|---|
| Airport | Ontario International Airport (KONT) |
| Time | Latitude | Longitude | Altitude | Speed | Heading |
|---|---|---|---|---|---|
| 2026-05-05 23:00 | 33.43362 | -111.99974 | 1124 ft | 0 kts | 40° |
| 2026-05-05 23:15 | 33.43344 | -111.99993 | 1113 ft | 4 kts | 40° |
| 2026-05-05 23:15 | 33.43327 | -112.00010 | 1124 ft | 4 kts | 56° |
| 2026-05-05 23:15 | 33.43321 | -112.00033 | 1115 ft | 4 kts | 127° |
| 2026-05-05 23:15 | 33.43340 | -112.00042 | 1116 ft | 4 kts | 180° |
| 2026-05-05 23:16 | 33.43351 | -112.00042 | 1124 ft | 0 kts | 180° |
| 2026-05-05 23:18 | 33.43340 | -112.00042 | 1124 ft | 5 kts | 180° |
| 2026-05-05 23:19 | 33.43294 | -112.00011 | 1124 ft | 11 kts | 122° |
| 2026-05-05 23:19 | 33.43283 | -111.99912 | 1124 ft | 13 kts | 90° |
| 2026-05-05 23:19 | 33.43283 | -111.99809 | 1115 ft | 12 kts | 89° |
| 2026-05-05 23:19 | 33.43284 | -111.99708 | 1124 ft | 12 kts | 90° |
| 2026-05-05 23:20 | 33.43285 | -111.99611 | 1124 ft | 12 kts | 90° |
| 2026-05-05 23:20 | 33.43285 | -111.99516 | 1118 ft | 11 kts | 90° |
| 2026-05-05 23:20 | 33.43284 | -111.99423 | 1122 ft | 11 kts | 92° |
| 2026-05-05 23:20 | 33.43255 | -111.99348 | 1125 ft | 11 kts | 159° |
| 2026-05-05 23:21 | 33.43228 | -111.99345 | 1125 ft | 0 kts | 177° |
| 2026-05-05 23:21 | 33.43186 | -111.99342 | 1125 ft | 8 kts | 177° |
| 2026-05-05 23:21 | 33.43131 | -111.99356 | 1132 ft | 8 kts | 216° |
| 2026-05-05 23:22 | 33.43104 | -111.99416 | 1131 ft | 9 kts | 261° |
| 2026-05-05 23:22 | 33.43103 | -111.99425 | 1133 ft | 0 kts | 267° |
| 2026-05-05 23:22 | 33.43102 | -111.99495 | 1133 ft | 35 kts | 269° |
| 2026-05-05 23:22 | 33.43102 | -112.00075 | 1132 ft | 102 kts | 270° |
| 2026-05-05 23:23 | 33.43094 | -112.01150 | 1154 ft | 152 kts | 267° |
| 2026-05-05 23:23 | 33.43130 | -112.02514 | 1512 ft | 173 kts | 270° |
| 2026-05-05 23:23 | 33.43178 | -112.04031 | 1956 ft | 190 kts | 270° |
| 2026-05-05 23:23 | 33.43175 | -112.05624 | 2617 ft | 193 kts | 263° |
| 2026-05-05 23:24 | 33.42892 | -112.07228 | 3256 ft | 203 kts | 250° |
| 2026-05-05 23:24 | 33.42361 | -112.08839 | 3851 ft | 219 kts | 247° |
| 2026-05-05 23:24 | 33.41778 | -112.10693 | 4193 ft | 249 kts | 250° |
| 2026-05-05 23:24 | 33.41191 | -112.12660 | 4982 ft | 255 kts | 250° |
| 2026-05-05 23:25 | 33.40592 | -112.14645 | 6040 ft | 254 kts | 249° |
| 2026-05-05 23:25 | 33.39987 | -112.16628 | 7074 ft | 255 kts | 250° |
| 2026-05-05 23:25 | 33.39377 | -112.18653 | 8001 ft | 260 kts | 253° |
| 2026-05-05 23:25 | 33.39196 | -112.20813 | 8993 ft | 267 kts | 275° |
| 2026-05-05 23:26 | 33.39496 | -112.22999 | 10087 ft | 268 kts | 278° |
| 2026-05-05 23:26 | 33.39837 | -112.25255 | 10675 ft | 288 kts | 278° |
| 2026-05-05 23:26 | 33.40216 | -112.27746 | 10902 ft | 318 kts | 278° |
| 2026-05-05 23:26 | 33.40621 | -112.30413 | 11562 ft | 331 kts | 278° |
| 2026-05-05 23:27 | 33.41033 | -112.33130 | 12585 ft | 332 kts | 277° |
| 2026-05-05 23:27 | 33.41445 | -112.35875 | 13494 ft | 339 kts | 277° |
| 2026-05-05 23:27 | 33.41862 | -112.38671 | 14391 ft | 343 kts | 277° |
| 2026-05-05 23:27 | 33.42281 | -112.41496 | 15352 ft | 346 kts | 277° |
| 2026-05-05 23:28 | 33.42702 | -112.44344 | 16295 ft | 349 kts | 277° |
| 2026-05-05 23:28 | 33.43126 | -112.47223 | 17234 ft | 353 kts | 278° |
| 2026-05-05 23:28 | 33.43556 | -112.50139 | 18111 ft | 358 kts | 278° |
| 2026-05-05 23:28 | 33.43990 | -112.53097 | 18897 ft | 363 kts | 278° |
| 2026-05-05 23:29 | 33.44427 | -112.56073 | 19854 ft | 361 kts | 277° |
| 2026-05-05 23:29 | 33.44860 | -112.59025 | 20880 ft | 359 kts | 276° |
| 2026-05-05 23:29 | 33.45158 | -112.61974 | 21803 ft | 356 kts | 270° |
| 2026-05-05 23:29 | 33.45205 | -112.64937 | 22711 ft | 356 kts | 266° |
| 2026-05-05 23:30 | 33.45187 | -112.67897 | 23577 ft | 356 kts | 266° |
| 2026-05-05 23:30 | 33.45179 | -112.70863 | 24302 ft | 356 kts | 265° |
| 2026-05-05 23:30 | 33.45199 | -112.73825 | 25053 ft | 355 kts | 265° |
| 2026-05-05 23:30 | 33.45232 | -112.76777 | 25794 ft | 354 kts | 264° |
| 2026-05-05 23:31 | 33.45285 | -112.79731 | 26455 ft | 357 kts | 267° |
| 2026-05-05 23:31 | 33.45667 | -112.82710 | 27126 ft | 364 kts | 273° |
| 2026-05-05 23:31 | 33.46223 | -112.85644 | 28072 ft | 358 kts | 273° |
| 2026-05-05 23:31 | 33.46796 | -112.88510 | 29132 ft | 349 kts | 272° |
| 2026-05-05 23:32 | 33.47355 | -112.91297 | 30166 ft | 339 kts | 271° |
| 2026-05-05 23:32 | 33.47890 | -112.94025 | 30928 ft | 334 kts | 271° |
| 2026-05-05 23:32 | 33.48408 | -112.96737 | 31447 ft | 335 kts | 270° |
| 2026-05-05 23:32 | 33.48920 | -112.99484 | 31817 ft | 340 kts | 271° |
| 2026-05-05 23:33 | 33.49966 | -113.05148 | 31857 ft | 351 kts | 271° |
| 2026-05-05 23:33 | 33.51021 | -113.10782 | 31884 ft | 342 kts | 272° |
| 2026-05-05 23:34 | 33.52073 | -113.16483 | 31874 ft | 360 kts | 273° |
| 2026-05-05 23:34 | 33.53158 | -113.22387 | 31851 ft | 362 kts | 273° |
| 2026-05-05 23:35 | 33.54245 | -113.28263 | 31859 ft | 360 kts | 273° |
| 2026-05-05 23:35 | 33.55320 | -113.34113 | 31860 ft | 358 kts | 273° |
| 2026-05-05 23:36 | 33.56386 | -113.39939 | 31868 ft | 357 kts | 273° |
| 2026-05-05 23:36 | 33.57446 | -113.45755 | 31966 ft | 359 kts | 274° |
| 2026-05-05 23:37 | 33.58508 | -113.51595 | 31974 ft | 363 kts | 274° |
| 2026-05-05 23:37 | 33.59615 | -113.57539 | 31983 ft | 367 kts | 275° |
| 2026-05-05 23:38 | 33.60737 | -113.63519 | 31975 ft | 368 kts | 275° |
| 2026-05-05 23:38 | 33.61860 | -113.69535 | 31971 ft | 367 kts | 275° |
| 2026-05-05 23:39 | 33.62959 | -113.75454 | 31953 ft | 365 kts | 275° |
| 2026-05-05 23:39 | 33.64059 | -113.81395 | 31935 ft | 364 kts | 275° |
| 2026-05-05 23:40 | 33.65035 | -113.87339 | 31905 ft | 358 kts | 266° |
| 2026-05-05 23:40 | 33.64946 | -113.93263 | 31894 ft | 356 kts | 263° |
| 2026-05-05 23:41 | 33.64815 | -113.99218 | 31875 ft | 358 kts | 263° |
| 2026-05-05 23:41 | 33.64713 | -114.05203 | 31868 ft | 359 kts | 263° |
| 2026-05-05 23:42 | 33.64616 | -114.11210 | 31888 ft | 361 kts | 264° |
| 2026-05-05 23:42 | 33.64956 | -114.17279 | 31870 ft | 368 kts | 271° |
| 2026-05-05 23:43 | 33.65628 | -114.23373 | 31870 ft | 368 kts | 272° |
| 2026-05-05 23:43 | 33.66287 | -114.29449 | 31873 ft | 367 kts | 271° |
| 2026-05-05 23:44 | 33.66907 | -114.35510 | 31875 ft | 365 kts | 271° |
| 2026-05-05 23:44 | 33.67508 | -114.41555 | 31875 ft | 364 kts | 271° |
| 2026-05-05 23:45 | 33.68097 | -114.47600 | 31881 ft | 365 kts | 271° |
| 2026-05-05 23:45 | 33.68683 | -114.53654 | 31878 ft | 365 kts | 271° |
| 2026-05-05 23:46 | 33.69268 | -114.59721 | 31899 ft | 366 kts | 271° |
| 2026-05-05 23:46 | 33.69854 | -114.65847 | 31891 ft | 372 kts | 272° |
| 2026-05-05 23:47 | 33.70448 | -114.72067 | 31884 ft | 377 kts | 272° |
| 2026-05-05 23:47 | 33.71044 | -114.78334 | 31879 ft | 378 kts | 272° |
| 2026-05-05 23:48 | 33.71638 | -114.84606 | 31878 ft | 377 kts | 272° |
| 2026-05-05 23:48 | 33.72226 | -114.90853 | 31878 ft | 376 kts | 272° |
| 2026-05-05 23:49 | 33.72808 | -114.97074 | 31872 ft | 374 kts | 272° |
| 2026-05-05 23:49 | 33.73384 | -115.03279 | 31870 ft | 374 kts | 272° |
| 2026-05-05 23:50 | 33.73959 | -115.09496 | 31870 ft | 375 kts | 272° |
| 2026-05-05 23:50 | 33.74527 | -115.15679 | 31877 ft | 377 kts | 272° |
| 2026-05-05 23:51 | 33.75133 | -115.21945 | 31873 ft | 378 kts | 273° |
| 2026-05-05 23:51 | 33.75781 | -115.28215 | 31878 ft | 378 kts | 273° |
| 2026-05-05 23:52 | 33.76417 | -115.34437 | 31879 ft | 378 kts | 273° |
| 2026-05-05 23:52 | 33.76734 | -115.37582 | 31536 ft | 382 kts | 274° |
| 2026-05-05 23:52 | 33.77056 | -115.40790 | 31054 ft | 380 kts | 274° |
| 2026-05-05 23:53 | 33.77379 | -115.43939 | 30525 ft | 379 kts | 274° |
| 2026-05-05 23:53 | 33.77705 | -115.47074 | 30042 ft | 377 kts | 275° |
| 2026-05-05 23:53 | 33.78030 | -115.50190 | 29481 ft | 374 kts | 275° |
| 2026-05-05 23:53 | 33.78351 | -115.53278 | 28937 ft | 370 kts | 275° |
| 2026-05-05 23:54 | 33.78666 | -115.56330 | 28431 ft | 366 kts | 275° |
| 2026-05-05 23:54 | 33.78976 | -115.59352 | 27937 ft | 364 kts | 275° |
| 2026-05-05 23:54 | 33.79283 | -115.62366 | 27573 ft | 361 kts | 275° |
| 2026-05-05 23:54 | 33.79586 | -115.65366 | 27220 ft | 365 kts | 276° |
| 2026-05-05 23:55 | 33.79888 | -115.68378 | 26869 ft | 370 kts | 276° |
| 2026-05-05 23:55 | 33.80197 | -115.71461 | 26505 ft | 372 kts | 276° |
| 2026-05-05 23:55 | 33.80505 | -115.74544 | 26142 ft | 370 kts | 276° |
| 2026-05-05 23:55 | 33.80812 | -115.77612 | 25786 ft | 369 kts | 276° |
| 2026-05-05 23:56 | 33.81117 | -115.80669 | 25430 ft | 368 kts | 276° |
| 2026-05-05 23:56 | 33.81420 | -115.83718 | 25085 ft | 367 kts | 277° |
| 2026-05-05 23:56 | 33.81722 | -115.86758 | 24732 ft | 366 kts | 277° |
| 2026-05-05 23:56 | 33.82022 | -115.89793 | 24379 ft | 365 kts | 277° |
| 2026-05-05 23:57 | 33.82321 | -115.92822 | 24033 ft | 365 kts | 277° |
| 2026-05-05 23:57 | 33.82619 | -115.95847 | 23682 ft | 364 kts | 277° |
| 2026-05-05 23:57 | 33.82916 | -115.98869 | 23303 ft | 363 kts | 278° |
| 2026-05-05 23:57 | 33.83211 | -116.01884 | 22901 ft | 362 kts | 277° |
| 2026-05-05 23:58 | 33.83505 | -116.04886 | 22541 ft | 361 kts | 278° |
| 2026-05-05 23:58 | 33.83761 | -116.07509 | 22209 ft | 359 kts | 277° |
| 2026-05-05 23:58 | 33.84051 | -116.10481 | 21884 ft | 357 kts | 277° |
| 2026-05-05 23:58 | 33.84339 | -116.13440 | 21533 ft | 356 kts | 278° |
| 2026-05-05 23:59 | 33.84638 | -116.16387 | 21198 ft | 354 kts | 279° |
| 2026-05-05 23:59 | 33.84940 | -116.19324 | 20852 ft | 354 kts | 278° |
| 2026-05-05 23:59 | 33.85239 | -116.22257 | 20513 ft | 352 kts | 279° |
| 2026-05-05 23:59 | 33.85533 | -116.25167 | 20174 ft | 349 kts | 278° |
| 2026-05-06 00:00 | 33.85826 | -116.28050 | 19820 ft | 345 kts | 278° |
| 2026-05-06 00:00 | 33.86128 | -116.30896 | 19387 ft | 341 kts | 279° |
| 2026-05-06 00:00 | 33.86435 | -116.33705 | 18969 ft | 337 kts | 279° |
| 2026-05-06 00:00 | 33.86738 | -116.36477 | 18558 ft | 332 kts | 279° |
| 2026-05-06 00:01 | 33.86937 | -116.38300 | 18275 ft | 331 kts | 279° |
| 2026-05-06 00:01 | 33.87234 | -116.41038 | 17816 ft | 328 kts | 279° |
| 2026-05-06 00:01 | 33.87525 | -116.43748 | 17357 ft | 325 kts | 279° |
| 2026-05-06 00:01 | 33.87859 | -116.46415 | 16933 ft | 320 kts | 284° |
| 2026-05-06 00:02 | 33.88462 | -116.48969 | 16530 ft | 315 kts | 289° |
| 2026-05-06 00:02 | 33.89125 | -116.51461 | 16130 ft | 311 kts | 289° |
| 2026-05-06 00:02 | 33.89776 | -116.53928 | 15755 ft | 308 kts | 289° |
| 2026-05-06 00:02 | 33.90415 | -116.56387 | 15426 ft | 309 kts | 288° |
| 2026-05-06 00:03 | 33.91049 | -116.58862 | 15078 ft | 310 kts | 288° |
| 2026-05-06 00:03 | 33.91682 | -116.61352 | 14742 ft | 312 kts | 288° |
| 2026-05-06 00:03 | 33.92317 | -116.63857 | 14394 ft | 314 kts | 287° |
| 2026-05-06 00:03 | 33.92951 | -116.66373 | 14058 ft | 314 kts | 287° |
| 2026-05-06 00:04 | 33.93582 | -116.68882 | 13704 ft | 312 kts | 287° |
| 2026-05-06 00:04 | 33.94205 | -116.71370 | 13335 ft | 311 kts | 287° |
| 2026-05-06 00:04 | 33.94794 | -116.73879 | 12955 ft | 310 kts | 283° |
| 2026-05-06 00:04 | 33.94875 | -116.76460 | 12627 ft | 305 kts | 270° |
| 2026-05-06 00:05 | 33.94650 | -116.81555 | 11930 ft | 306 kts | 269° |
| 2026-05-06 00:05 | 33.94546 | -116.84119 | 11594 ft | 307 kts | 269° |
| 2026-05-06 00:05 | 33.94450 | -116.86700 | 11262 ft | 309 kts | 270° |
| 2026-05-06 00:06 | 33.94359 | -116.89296 | 10922 ft | 311 kts | 269° |
| 2026-05-06 00:06 | 33.94268 | -116.91897 | 10582 ft | 310 kts | 270° |
| 2026-05-06 00:06 | 33.94179 | -116.94465 | 10228 ft | 304 kts | 270° |
| 2026-05-06 00:06 | 33.94326 | -116.96963 | 9877 ft | 293 kts | 291° |
| 2026-05-06 00:07 | 33.95101 | -116.99103 | 9650 ft | 274 kts | 296° |
| 2026-05-06 00:07 | 33.95835 | -117.01195 | 9298 ft | 267 kts | 294° |
| 2026-05-06 00:07 | 33.96550 | -117.03255 | 8969 ft | 264 kts | 295° |
| 2026-05-06 00:07 | 33.97244 | -117.05255 | 8828 ft | 251 kts | 295° |
| 2026-05-06 00:08 | 33.97895 | -117.07126 | 8698 ft | 234 kts | 295° |
| 2026-05-06 00:08 | 33.98524 | -117.08929 | 8222 ft | 240 kts | 294° |
| 2026-05-06 00:08 | 33.99177 | -117.10794 | 7888 ft | 245 kts | 294° |
| 2026-05-06 00:08 | 33.99834 | -117.12677 | 7630 ft | 240 kts | 293° |
| 2026-05-06 00:09 | 34.00478 | -117.14525 | 7324 ft | 239 kts | 293° |
| 2026-05-06 00:09 | 34.01122 | -117.16372 | 7054 ft | 239 kts | 292° |
| 2026-05-06 00:09 | 34.01743 | -117.18237 | 6791 ft | 241 kts | 288° |
| 2026-05-06 00:09 | 34.02192 | -117.20188 | 6556 ft | 242 kts | 284° |
| 2026-05-06 00:10 | 34.02598 | -117.22156 | 6272 ft | 242 kts | 284° |
| 2026-05-06 00:10 | 34.03007 | -117.24117 | 5992 ft | 240 kts | 284° |
| 2026-05-06 00:10 | 34.03421 | -117.26061 | 5711 ft | 238 kts | 284° |
| 2026-05-06 00:10 | 34.03833 | -117.27975 | 5441 ft | 235 kts | 284° |
| 2026-05-06 00:11 | 34.04239 | -117.29850 | 5180 ft | 226 kts | 283° |
| 2026-05-06 00:11 | 34.04624 | -117.31631 | 4938 ft | 213 kts | 283° |
| 2026-05-06 00:11 | 34.04983 | -117.33314 | 4696 ft | 202 kts | 282° |
| 2026-05-06 00:11 | 34.05324 | -117.34928 | 4462 ft | 196 kts | 282° |
| 2026-05-06 00:12 | 34.05521 | -117.36519 | 4219 ft | 189 kts | 271° |
| 2026-05-06 00:12 | 34.05530 | -117.38082 | 3952 ft | 183 kts | 268° |
| 2026-05-06 00:12 | 34.05519 | -117.39613 | 3697 ft | 185 kts | 268° |
| 2026-05-06 00:12 | 34.05515 | -117.41161 | 3423 ft | 182 kts | 269° |
| 2026-05-06 00:13 | 34.05512 | -117.42659 | 3276 ft | 178 kts | 269° |
| 2026-05-06 00:13 | 34.05510 | -117.44144 | 3123 ft | 182 kts | 269° |
| 2026-05-06 00:13 | 34.05508 | -117.45678 | 2974 ft | 177 kts | 268° |
| 2026-05-06 00:13 | 34.05505 | -117.47163 | 2745 ft | 178 kts | 269° |
| 2026-05-06 00:14 | 34.05503 | -117.48634 | 2503 ft | 172 kts | 268° |
| 2026-05-06 00:14 | 34.05501 | -117.50047 | 2299 ft | 168 kts | 269° |
| 2026-05-06 00:14 | 34.05500 | -117.51447 | 2067 ft | 169 kts | 270° |
| 2026-05-06 00:14 | 34.05497 | -117.52790 | 1924 ft | 150 kts | 268° |
| 2026-05-06 00:15 | 34.05485 | -117.53972 | 1725 ft | 135 kts | 269° |
| 2026-05-06 00:15 | 34.05454 | -117.55094 | 1452 ft | 128 kts | 272° |
| 2026-05-06 00:15 | 34.05491 | -117.56127 | 1260 ft | 120 kts | 270° |
| 2026-05-06 00:15 | 34.05500 | -117.57149 | 1141 ft | 126 kts | 267° |
| 2026-05-06 00:16 | 34.05497 | -117.58217 | 1003 ft | 127 kts | 268° |
| 2026-05-06 00:16 | 34.05499 | -117.59237 | 944 ft | 110 kts | 270° |
| 2026-05-06 00:16 | 34.05496 | -117.59837 | 943 ft | 32 kts | 271° |
| 2026-05-06 00:16 | 34.05555 | -117.59967 | 943 ft | 17 kts | 326° |
| 2026-05-06 00:17 | 34.05590 | -117.59986 | 944 ft | 0 kts | 343° |
| 2026-05-06 00:18 | 34.05591 | -117.59986 | 944 ft | 1 kts | 343° |
| 2026-05-06 00:18 | 34.05640 | -117.59992 | 944 ft | 10 kts | 359° |
| 2026-05-06 00:18 | 34.05715 | -117.59993 | 944 ft | 12 kts | 358° |
| 2026-05-06 00:19 | 34.05794 | -117.59976 | 942 ft | 11 kts | 58° |
| 2026-05-06 00:19 | 34.05801 | -117.59889 | 943 ft | 10 kts | 90° |
| 2026-05-06 00:19 | 34.05801 | -117.59804 | 943 ft | 10 kts | 90° |
| 2026-05-06 00:19 | 34.05800 | -117.59713 | 943 ft | 12 kts | 90° |
| 2026-05-06 00:20 | 34.05800 | -117.59595 | 943 ft | 15 kts | 89° |
| 2026-05-06 00:20 | 34.05802 | -117.59465 | 942 ft | 17 kts | 90° |
| 2026-05-06 00:20 | 34.05800 | -117.59313 | 943 ft | 18 kts | 89° |
| 2026-05-06 00:20 | 34.05800 | -117.59161 | 944 ft | 18 kts | 89° |
| 2026-05-06 00:21 | 34.05801 | -117.59032 | 944 ft | 12 kts | 83° |
| 2026-05-06 00:21 | 34.05867 | -117.58988 | 944 ft | 12 kts | 11° |
| 2026-05-06 00:21 | 34.05898 | -117.58906 | 944 ft | 11 kts | 87° |
| 2026-05-06 00:21 | 34.05899 | -117.58812 | 944 ft | 11 kts | 90° |
| 2026-05-06 00:22 | 34.05906 | -117.58756 | 942 ft | 5 kts | 60° |
| 2026-05-06 00:22 | 34.05936 | -117.58740 | 944 ft | 5 kts | 9° |
| 2026-05-06 00:22 | 34.05956 | -117.58739 | 944 ft | 2 kts | 0° |
| 2026-05-06 00:22 | 34.05962 | -117.58739 | 944 ft | 0 kts | 0° |